createdAt,value
2023-09-13T00:00:33.685Z,1.00
2023-09-13T00:03:01.368Z,1.77
2023-09-13T00:05:28.955Z,2.10
2023-09-13T00:07:56.423Z,1.38
2023-09-13T00:10:23.995Z,4.32
2023-09-13T00:12:53.824Z,2.10
2023-09-13T00:15:21.538Z,1.48
2023-09-13T00:17:49.001Z,2.90
2023-09-13T00:20:17.051Z,1.45
2023-09-13T00:22:46.446Z,1.20
2023-09-13T00:25:14.008Z,1.45
2023-09-13T00:27:41.559Z,4.17
2023-09-13T00:30:11.592Z,2.90
2023-09-13T00:32:39.202Z,4.47
2023-09-13T00:35:06.961Z,2.73
2023-09-13T00:37:34.509Z,1.83
2023-09-13T00:40:02.133Z,1.13
2023-09-13T00:42:30.460Z,1.67
2023-09-13T00:44:57.959Z,2.17
2023-09-13T00:47:25.686Z,2.73
2023-09-13T00:49:53.400Z,1.90
2023-09-13T00:52:21.073Z,2.00
2023-09-13T00:54:50.226Z,3.95
2023-09-13T00:57:18.070Z,2.30
2023-09-13T00:59:45.796Z,1.13
2023-09-13T01:02:13.598Z,0.90
2023-09-13T01:04:42.997Z,1.77
2023-09-13T01:07:11.241Z,2.00
2023-09-13T01:09:38.929Z,1.92
2023-09-13T01:14:35.482Z,1.52
2023-09-13T01:17:09.684Z,2.65
2023-09-13T01:19:37.580Z,1.67
2023-09-13T01:22:22.429Z,2.25
2023-09-13T01:24:50.032Z,1.70
2023-09-13T01:27:43.860Z,1.53
2023-09-13T01:30:11.536Z,2.85
2023-09-13T01:32:39.219Z,1.53
2023-09-13T01:35:07.361Z,3.13
2023-09-13T01:37:35.017Z,2.30
2023-09-13T01:40:04.733Z,2.23
2023-09-13T01:42:32.536Z,1.92
2023-09-13T01:45:00.579Z,2.15
2023-09-13T01:47:29.317Z,3.97
2023-09-13T01:49:57.855Z,2.47
2023-09-13T01:52:25.386Z,1.27
2023-09-13T01:54:53.116Z,1.43
2023-09-13T01:57:20.638Z,2.03
2023-09-13T01:59:48.213Z,1.35
2023-09-13T02:02:15.924Z,0.90
2023-09-13T02:04:43.469Z,2.30
2023-09-13T02:07:11.264Z,2.13
2023-09-13T02:09:39.592Z,1.20
2023-09-13T02:12:07.477Z,1.42
2023-09-13T02:14:35.337Z,0.90
2023-09-13T02:17:02.992Z,2.60
2023-09-13T02:19:30.511Z,2.03
2023-09-13T02:21:58.154Z,1.17
2023-09-13T02:24:26.172Z,2.30
2023-09-13T02:26:57.391Z,3.40
2023-09-13T02:29:25.596Z,1.33
2023-09-13T02:31:53.170Z,1.35
2023-09-13T02:34:21.693Z,1.20
2023-09-13T02:36:49.433Z,0.77
2023-09-13T02:39:36.030Z,4.03
2023-09-13T02:42:07.050Z,1.92
2023-09-13T02:44:34.983Z,4.03
2023-09-13T02:47:03.203Z,1.63
2023-09-13T02:49:30.866Z,1.95
2023-09-13T02:51:58.452Z,2.17
2023-09-13T02:54:26.476Z,2.05
2023-09-13T02:56:54.539Z,1.40
2023-09-13T02:59:22.792Z,2.53
2023-09-13T03:01:51.231Z,2.55
2023-09-13T03:04:19.912Z,1.90
2023-09-13T03:06:50.425Z,1.17
2023-09-13T03:09:18.357Z,2.35
2023-09-13T03:11:45.932Z,0.80
2023-09-13T03:14:13.430Z,1.52
2023-09-13T03:16:41.133Z,1.53
2023-09-13T03:19:08.883Z,2.10
2023-09-13T03:21:38.574Z,2.25
2023-09-13T03:24:10.886Z,1.13
2023-09-13T03:26:40.160Z,1.92
2023-09-13T03:29:09.351Z,2.30
2023-09-13T03:31:39.809Z,1.58
2023-09-13T03:34:12.216Z,2.33
2023-09-13T03:36:40.098Z,1.13
2023-09-13T03:39:07.807Z,2.93
2023-09-13T03:41:38.960Z,0.88
2023-09-13T03:44:08.324Z,0.82
2023-09-13T03:46:36.010Z,1.87
2023-09-13T03:49:03.757Z,1.33
2023-09-13T03:51:31.906Z,2.10
2023-09-13T03:54:00.305Z,2.35
2023-09-13T03:56:28.188Z,1.85
2023-09-13T03:58:56.614Z,1.98
2023-09-13T04:01:25.609Z,1.65
2023-09-13T04:03:53.709Z,1.70
2023-09-13T04:06:21.485Z,0.85
2023-09-13T04:08:49.011Z,1.37
2023-09-13T04:11:16.417Z,1.27
2023-09-13T04:13:44.177Z,0.52
2023-09-13T04:16:23.843Z,0.88
2023-09-13T04:18:51.530Z,0.75
2023-09-13T04:21:19.291Z,1.10
2023-09-13T04:23:47.051Z,0.57
2023-09-13T04:26:16.586Z,1.88
2023-09-13T04:28:44.362Z,2.10
2023-09-13T04:31:12.479Z,0.77
2023-09-13T04:33:50.535Z,0.80
2023-09-13T04:36:20.469Z,2.47
2023-09-13T04:38:49.347Z,0.82
2023-09-13T04:41:17.678Z,1.83
2023-09-13T04:43:45.829Z,1.30
2023-09-13T04:46:14.932Z,0.93
2023-09-13T04:48:42.697Z,1.25
2023-09-13T04:51:11.515Z,1.10
2023-09-13T04:53:39.921Z,1.23
2023-09-13T04:56:07.725Z,1.60
2023-09-13T04:58:41.054Z,0.98
2023-09-13T05:01:09.465Z,1.00
2023-09-13T05:06:07.720Z,0.60
2023-09-13T05:08:36.924Z,0.98
2023-09-13T05:11:04.558Z,1.03
2023-09-13T05:13:33.794Z,0.60
2023-09-13T05:16:01.349Z,0.73
2023-09-13T05:18:28.924Z,0.90
2023-09-13T05:20:56.400Z,1.08
2023-09-13T05:23:23.928Z,0.60
2023-09-13T05:25:51.584Z,1.63
2023-09-13T05:28:19.064Z,2.40
2023-09-13T05:30:50.560Z,1.48
2023-09-13T05:33:18.239Z,0.55
2023-09-13T05:35:45.823Z,1.17
2023-09-13T05:38:13.313Z,2.42
2023-09-13T05:40:40.696Z,1.35
2023-09-13T05:43:08.299Z,2.20
2023-09-13T05:45:35.843Z,0.90
2023-09-13T05:48:04.309Z,2.67
2023-09-13T05:50:31.967Z,1.90
2023-09-13T05:52:59.773Z,4.38
2023-09-13T05:55:27.428Z,1.20
2023-09-13T05:57:55.522Z,1.47
2023-09-13T06:00:23.114Z,1.55
2023-09-13T06:02:50.671Z,0.75
2023-09-13T06:05:19.640Z,0.90
2023-09-13T06:07:47.236Z,1.38
2023-09-13T06:10:14.839Z,0.85
2023-09-13T06:12:42.354Z,1.07
2023-09-13T06:15:10.232Z,0.80
2023-09-13T06:17:40.713Z,1.27
2023-09-13T06:20:08.527Z,0.45
2023-09-13T06:22:36.278Z,1.13
2023-09-13T06:25:09.255Z,1.53
2023-09-13T06:27:38.301Z,1.13
2023-09-13T06:30:06.078Z,1.02
2023-09-13T06:32:41.081Z,0.88
2023-09-13T06:35:15.460Z,1.52
2023-09-13T06:37:46.197Z,2.35
2023-09-13T06:40:14.506Z,2.45
2023-09-13T06:45:25.978Z,1.20
2023-09-13T06:47:55.321Z,1.30
2023-09-13T06:50:43.275Z,0.85
2023-09-13T06:53:26.526Z,0.80
2023-09-13T06:55:58.698Z,0.60
2023-09-13T06:58:29.841Z,1.45
2023-09-13T07:01:25.517Z,0.45
2023-09-13T07:03:50.274Z,0.80
2023-09-13T07:06:21.519Z,1.77
2023-09-13T07:08:49.036Z,0.50
2023-09-13T07:11:17.445Z,2.47
2023-09-13T07:13:44.999Z,0.30
2023-09-13T07:16:12.649Z,0.60
2023-09-13T07:18:40.178Z,0.50
2023-09-13T07:21:07.650Z,0.73
2023-09-13T07:23:37.936Z,1.02
2023-09-13T07:26:05.469Z,0.77
2023-09-13T07:28:33.109Z,1.07
2023-09-13T07:31:00.596Z,0.77
2023-09-13T07:33:32.931Z,2.27
2023-09-13T07:36:00.589Z,0.77
2023-09-13T07:38:28.047Z,0.77
2023-09-13T07:40:55.575Z,1.02
2023-09-13T07:43:23.161Z,0.93
2023-09-13T07:45:51.298Z,1.60
2023-09-13T07:48:18.954Z,0.82
2023-09-13T07:50:46.555Z,2.73
2023-09-13T07:53:14.265Z,0.65
2023-09-13T07:55:42.400Z,0.80
2023-09-13T07:58:10.076Z,1.05
2023-09-13T08:00:37.765Z,1.57
2023-09-13T08:03:05.959Z,1.03
2023-09-13T08:05:33.632Z,0.60
2023-09-13T08:08:01.543Z,1.93
2023-09-13T08:10:29.011Z,0.82
2023-09-13T08:12:56.495Z,2.58
2023-09-13T08:15:34.512Z,1.23
2023-09-13T08:18:10.887Z,3.20
2023-09-13T08:20:38.385Z,0.98
2023-09-13T08:23:06.038Z,0.60
2023-09-13T08:25:33.754Z,1.90
2023-09-13T08:28:01.154Z,0.93
2023-09-13T08:30:28.673Z,1.23
2023-09-13T08:32:56.130Z,2.13
2023-09-13T08:35:23.715Z,1.42
2023-09-13T08:37:51.310Z,4.35
2023-09-13T08:40:18.895Z,1.23
2023-09-13T08:42:46.860Z,2.70
2023-09-13T08:45:15.205Z,1.77
2023-09-13T08:47:55.781Z,1.10
2023-09-13T08:50:30.160Z,1.92
2023-09-13T08:53:00.632Z,1.08
2023-09-13T08:55:28.805Z,0.88
2023-09-13T08:57:57.352Z,2.03
2023-09-13T09:02:53.321Z,1.37
2023-09-13T09:05:20.896Z,1.42
2023-09-13T09:07:49.555Z,2.50
2023-09-13T09:10:17.775Z,1.23
2023-09-13T09:12:48.503Z,0.73
2023-09-13T09:15:16.683Z,2.08
2023-09-13T09:17:44.560Z,2.60
2023-09-13T09:20:12.258Z,1.25
2023-09-13T09:22:40.699Z,2.77
2023-09-13T09:25:12.201Z,4.20
2023-09-13T09:27:44.158Z,2.08
2023-09-13T09:30:16.429Z,3.58
2023-09-13T09:32:46.076Z,3.40
2023-09-13T09:35:16.194Z,1.88
2023-09-13T09:37:45.723Z,1.88
2023-09-13T09:40:15.955Z,2.67
2023-09-13T09:42:43.640Z,2.65
2023-09-13T09:45:11.276Z,3.67
2023-09-13T09:47:40.410Z,4.85
2023-09-13T09:50:11.798Z,2.33
2023-09-13T09:52:39.914Z,4.55
2023-09-13T09:55:08.013Z,2.00
2023-09-13T09:57:35.498Z,2.88
2023-09-13T10:00:08.764Z,1.63
2023-09-13T10:02:38.207Z,2.83
2023-09-13T10:05:07.015Z,5.55
2023-09-13T10:07:44.105Z,2.53
2023-09-13T10:10:23.943Z,3.58
2023-09-13T10:12:52.217Z,2.17
2023-09-13T10:17:48.998Z,1.67
2023-09-13T10:20:18.719Z,1.50
2023-09-13T10:22:48.780Z,1.92
2023-09-13T10:25:19.311Z,3.70
2023-09-13T10:27:49.090Z,2.35
2023-09-13T10:30:18.958Z,2.15
2023-09-13T10:32:48.958Z,3.20
2023-09-13T10:35:19.230Z,2.00
2023-09-13T10:37:56.921Z,3.17
2023-09-13T10:40:26.136Z,3.20
2023-09-13T10:42:54.720Z,3.08
2023-09-13T10:45:23.727Z,3.90
2023-09-13T10:47:52.185Z,4.60
2023-09-13T10:50:21.985Z,4.03
2023-09-13T10:52:50.450Z,2.20
2023-09-13T10:55:18.289Z,4.75
2023-09-13T10:57:47.096Z,4.90
2023-09-13T11:00:16.575Z,3.17
2023-09-13T11:02:49.648Z,4.18
2023-09-13T11:05:18.992Z,3.65
2023-09-13T11:07:48.775Z,1.92
2023-09-13T11:10:17.720Z,2.95
2023-09-13T11:12:49.996Z,1.83
2023-09-13T11:15:27.657Z,4.63
2023-09-13T11:18:14.351Z,2.53
2023-09-13T11:20:43.754Z,4.80
2023-09-13T11:26:03.307Z,5.35
2023-09-13T11:31:00.750Z,2.75
2023-09-13T11:33:29.290Z,2.50
2023-09-13T11:35:58.385Z,4.57
2023-09-13T11:38:26.782Z,3.15
2023-09-13T11:40:58.073Z,1.55
2023-09-13T11:43:34.506Z,1.92
2023-09-13T11:46:03.901Z,3.03
2023-09-13T11:48:56.040Z,3.47
2023-09-13T11:51:25.942Z,2.80
2023-09-13T11:53:56.238Z,2.42
2023-09-13T11:56:44.665Z,1.58
2023-09-13T11:59:15.331Z,2.78
2023-09-13T12:01:48.766Z,2.72
2023-09-13T12:06:52.503Z,2.83
2023-09-13T12:09:25.475Z,4.15
2023-09-13T12:12:01.526Z,3.20
2023-09-13T12:14:56.994Z,5.32
2023-09-13T12:17:21.170Z,3.10
2023-09-13T12:19:49.151Z,2.78
2023-09-13T12:22:18.426Z,3.05
2023-09-13T12:24:59.548Z,2.55
2023-09-13T12:27:27.170Z,1.60
2023-09-13T12:29:54.862Z,5.80
2023-09-13T12:32:22.440Z,4.53
2023-09-13T12:34:50.256Z,3.58
2023-09-13T12:37:17.784Z,2.88
2023-09-13T12:39:45.341Z,2.70
2023-09-13T12:42:13.505Z,4.68
2023-09-13T12:47:08.628Z,4.30
2023-09-13T12:49:40.119Z,3.05
2023-09-13T12:52:07.716Z,2.42
2023-09-13T12:54:36.169Z,3.77
2023-09-13T12:57:06.796Z,2.58
2023-09-13T12:59:45.201Z,2.58
2023-09-13T13:02:16.963Z,4.40
2023-09-13T13:04:44.642Z,3.80
2023-09-13T13:07:21.381Z,2.47
2023-09-13T13:09:52.868Z,1.90
2023-09-13T13:12:20.846Z,3.33
2023-09-13T13:14:52.413Z,2.78
2023-09-13T13:17:20.617Z,4.95
2023-09-13T13:19:56.869Z,3.83
2023-09-13T13:22:26.088Z,3.85
2023-09-13T13:24:54.125Z,4.13
2023-09-13T13:27:21.819Z,3.20
2023-09-13T13:29:49.612Z,4.85
2023-09-13T13:32:17.846Z,3.35
2023-09-13T13:34:45.464Z,4.28
2023-09-13T13:37:13.085Z,2.75
2023-09-13T13:39:40.708Z,3.92
2023-09-13T13:42:08.397Z,4.38
2023-09-13T13:44:37.910Z,3.90
2023-09-13T13:47:05.924Z,2.92
2023-09-13T13:49:33.811Z,3.83
2023-09-13T13:52:01.370Z,2.75
2023-09-13T13:54:29.060Z,4.10
2023-09-13T13:56:56.650Z,3.65
2023-09-13T13:59:24.253Z,5.73
2023-09-13T14:01:51.899Z,3.47
2023-09-13T14:04:19.643Z,7.18
2023-09-13T14:06:47.625Z,3.33
2023-09-13T14:09:19.090Z,3.20
2023-09-13T14:11:47.397Z,4.00
2023-09-13T14:14:16.595Z,2.83
2023-09-13T14:16:44.849Z,6.03
2023-09-13T14:19:12.889Z,4.57
2023-09-13T14:21:40.707Z,4.38
2023-09-13T14:24:09.067Z,4.15
2023-09-13T14:29:04.089Z,3.60
2023-09-13T14:31:37.726Z,4.50
2023-09-13T14:34:08.463Z,5.70
2023-09-13T14:36:36.124Z,2.78
2023-09-13T14:39:04.791Z,2.88
2023-09-13T14:41:32.600Z,4.53
2023-09-13T14:44:03.090Z,3.40
2023-09-13T14:46:30.830Z,3.30
2023-09-13T14:48:58.574Z,3.97
2023-09-13T14:51:26.339Z,3.13
2023-09-13T14:53:53.823Z,6.35
2023-09-13T14:56:21.307Z,5.32
2023-09-13T14:58:48.806Z,3.90
2023-09-13T15:01:16.386Z,4.23
2023-09-13T15:03:44.216Z,2.92
2023-09-13T15:06:12.868Z,8.00
2023-09-13T15:08:40.712Z,4.88
2023-09-13T15:11:08.578Z,4.13
2023-09-13T15:13:36.104Z,6.25
2023-09-13T15:16:04.085Z,4.00
2023-09-13T15:18:35.626Z,3.50
2023-09-13T15:21:04.484Z,3.47
2023-09-13T15:23:32.129Z,3.03
2023-09-13T15:25:59.752Z,3.55
2023-09-13T15:28:27.223Z,3.15
2023-09-13T15:30:55.082Z,3.20
2023-09-13T15:33:22.784Z,3.58
2023-09-13T15:35:53.238Z,5.20
2023-09-13T15:38:23.563Z,3.60
2023-09-13T15:40:50.978Z,3.20
2023-09-13T15:43:18.360Z,2.78
2023-09-13T15:45:45.903Z,3.42
2023-09-13T15:48:13.447Z,3.23
2023-09-13T15:50:41.198Z,6.57
2023-09-13T15:53:08.851Z,5.32
2023-09-13T15:55:37.521Z,3.80
2023-09-13T15:58:05.534Z,3.65
2023-09-13T16:00:36.155Z,4.00
2023-09-13T16:03:04.476Z,3.38
2023-09-13T16:07:59.519Z,2.97
2023-09-13T16:10:27.042Z,5.37
2023-09-13T16:12:54.649Z,2.67
2023-09-13T16:15:22.369Z,3.60
2023-09-13T16:17:50.906Z,37.60
2023-09-13T16:20:19.124Z,19.70
2023-09-13T16:22:46.798Z,14.38
2023-09-13T16:25:15.055Z,10.85
2023-09-13T16:27:42.655Z,7.97
2023-09-13T16:30:10.759Z,6.57
2023-09-13T16:32:41.594Z,6.10
2023-09-13T16:35:09.342Z,5.10
2023-09-13T16:37:37.086Z,5.38
2023-09-13T16:40:13.246Z,6.00
2023-09-13T16:42:45.792Z,4.72
2023-09-13T16:45:14.694Z,6.47
2023-09-13T16:47:42.550Z,4.65
2023-09-13T16:50:11.369Z,5.82
2023-09-13T16:52:38.804Z,3.70
2023-09-13T16:55:06.494Z,4.97
2023-09-13T16:57:34.000Z,4.63
2023-09-13T17:00:01.789Z,5.97
2023-09-13T17:02:29.747Z,5.80
2023-09-13T17:04:57.261Z,4.40
2023-09-13T17:07:29.180Z,3.27
2023-09-13T17:09:57.440Z,4.43
2023-09-13T17:12:25.083Z,5.83
2023-09-13T17:14:52.965Z,4.00
2023-09-13T17:17:23.683Z,3.83
2023-09-13T17:19:51.351Z,4.05
2023-09-13T17:22:18.933Z,5.07
2023-09-13T17:24:47.388Z,4.23
2023-09-13T17:27:16.262Z,5.38
2023-09-13T17:29:44.205Z,4.30
2023-09-13T17:32:11.626Z,3.47
2023-09-13T17:34:39.116Z,3.83
2023-09-13T17:37:06.763Z,4.47
2023-09-13T17:39:34.405Z,3.90
2023-09-13T17:42:01.971Z,5.17
2023-09-13T17:44:29.643Z,3.90
2023-09-13T17:46:57.497Z,5.38
2023-09-13T17:49:25.160Z,4.57
2023-09-13T17:51:52.718Z,4.20
2023-09-13T17:54:26.100Z,4.10
2023-09-13T17:56:53.818Z,4.80
2023-09-13T17:59:21.518Z,5.25
2023-09-13T18:01:49.614Z,5.18
2023-09-13T18:04:17.584Z,5.20
2023-09-13T18:06:47.290Z,5.07
2023-09-13T18:09:14.952Z,3.55
2023-09-13T18:11:42.493Z,5.00
2023-09-13T18:14:10.362Z,5.97
2023-09-13T18:16:37.877Z,6.70
2023-09-13T18:19:05.461Z,4.37
2023-09-13T18:21:34.794Z,4.57
2023-09-13T18:24:02.462Z,4.32
2023-09-13T18:26:29.887Z,5.87
2023-09-13T18:28:57.445Z,3.95
2023-09-13T18:31:25.124Z,5.90
2023-09-13T18:33:53.816Z,7.22
2023-09-13T18:36:21.365Z,7.50
2023-09-13T18:38:51.767Z,8.27
2023-09-13T18:41:19.404Z,9.93
2023-09-13T18:43:46.923Z,10.33
2023-09-13T18:46:16.107Z,8.63
2023-09-13T18:48:44.384Z,8.75
2023-09-13T18:51:12.647Z,7.45
2023-09-13T18:53:40.575Z,9.20
2023-09-13T18:56:08.085Z,7.43
2023-09-13T18:58:35.708Z,7.30
2023-09-13T19:01:05.551Z,6.87
2023-09-13T19:03:33.733Z,5.03
2023-09-13T19:06:02.348Z,6.95
2023-09-13T19:08:30.591Z,7.90
2023-09-13T19:10:58.723Z,8.00
2023-09-13T19:13:26.351Z,6.63
2023-09-13T19:16:08.627Z,8.03
2023-09-13T19:18:37.013Z,7.47
2023-09-13T19:21:04.971Z,6.30
2023-09-13T19:23:32.768Z,7.43
2023-09-13T19:26:01.231Z,9.30
2023-09-13T19:28:30.640Z,10.20
2023-09-13T19:30:59.104Z,12.35
2023-09-13T19:33:27.520Z,14.10
2023-09-13T19:38:30.427Z,10.85
2023-09-13T19:41:20.002Z,8.80
2023-09-13T19:43:49.100Z,9.38
2023-09-13T19:46:17.369Z,9.55
2023-09-13T19:48:45.310Z,10.02
2023-09-13T19:51:14.156Z,7.78
2023-09-13T19:53:42.307Z,8.32
2023-09-13T19:56:12.964Z,8.48
2023-09-13T19:58:43.324Z,8.75
2023-09-13T20:01:15.083Z,9.23
2023-09-13T20:03:44.203Z,10.88
2023-09-13T20:06:12.944Z,9.98
2023-09-13T20:08:41.024Z,17.85
2023-09-13T20:11:09.624Z,10.48
2023-09-13T20:13:45.117Z,12.77
2023-09-13T20:16:13.313Z,8.93
2023-09-13T20:18:41.120Z,13.13
2023-09-13T20:21:09.150Z,12.88
2023-09-13T20:23:36.837Z,18.20
2023-09-13T20:26:04.521Z,16.63
2023-09-13T20:28:33.706Z,18.10
2023-09-13T20:31:02.417Z,13.70
2023-09-13T20:33:32.703Z,14.95
2023-09-13T20:36:06.277Z,12.35
2023-09-13T20:38:34.209Z,12.90
2023-09-13T20:41:01.860Z,10.02
2023-09-13T20:43:35.774Z,11.15
2023-09-13T20:46:41.230Z,10.07
2023-09-13T20:49:09.402Z,11.35
2023-09-13T20:51:39.333Z,12.88
2023-09-13T20:54:07.408Z,13.38
2023-09-13T20:56:35.327Z,12.18
2023-09-13T20:59:04.330Z,12.10
2023-09-13T21:01:33.271Z,15.60
2023-09-13T21:04:01.197Z,11.35
2023-09-13T21:06:32.050Z,12.48
2023-09-13T21:08:59.655Z,12.70
2023-09-13T21:11:27.219Z,11.93
2023-09-13T21:13:54.751Z,12.27
2023-09-13T21:16:22.620Z,16.30
2023-09-13T21:18:50.360Z,14.85
2023-09-13T21:21:17.890Z,13.17
2023-09-13T21:23:46.202Z,15.93
2023-09-13T21:26:14.917Z,12.98
2023-09-13T21:28:46.709Z,12.68
2023-09-13T21:31:15.016Z,13.98
2023-09-13T21:33:43.857Z,13.50
2023-09-13T21:36:11.345Z,12.85
2023-09-13T21:38:41.196Z,11.15
2023-09-13T21:41:09.902Z,11.63
2023-09-13T21:43:37.589Z,11.50
2023-09-13T21:46:06.094Z,15.10
2023-09-13T21:48:38.389Z,12.98
2023-09-13T21:51:06.267Z,12.52
2023-09-13T21:53:34.320Z,13.57
2023-09-13T21:56:01.903Z,11.95
2023-09-13T21:58:29.624Z,9.57
2023-09-13T22:00:59.941Z,10.00
2023-09-13T22:03:35.073Z,8.57
2023-09-13T22:06:02.942Z,7.55
2023-09-13T22:08:31.234Z,6.23
2023-09-13T22:11:02.742Z,5.40
2023-09-13T22:13:30.771Z,4.88
2023-09-13T22:15:59.365Z,6.35
2023-09-13T22:18:26.900Z,5.45
2023-09-13T22:20:54.678Z,7.28
2023-09-13T22:23:26.918Z,5.97
2023-09-13T22:25:54.786Z,6.80
2023-09-13T22:28:22.338Z,5.93
2023-09-13T22:30:49.987Z,4.47
2023-09-13T22:33:17.789Z,6.72
2023-09-13T22:35:45.539Z,4.55
2023-09-13T22:38:13.934Z,5.13
2023-09-13T22:43:08.898Z,2.85
2023-09-13T22:45:40.117Z,5.23
2023-09-13T22:48:08.919Z,4.13
2023-09-13T22:50:38.035Z,3.75
2023-09-13T22:53:05.738Z,4.55
2023-09-13T22:55:34.681Z,3.22
2023-09-13T22:58:03.241Z,3.40
2023-09-13T23:00:35.508Z,4.50
2023-09-13T23:03:05.265Z,2.30
2023-09-13T23:05:38.120Z,2.72
2023-09-13T23:08:07.115Z,3.97
2023-09-13T23:10:34.618Z,5.97
2023-09-13T23:13:03.598Z,4.70
2023-09-13T23:15:34.292Z,4.00
2023-09-13T23:18:02.557Z,4.20
2023-09-13T23:20:31.099Z,2.40
2023-09-13T23:22:59.723Z,3.53
2023-09-13T23:25:27.302Z,3.85
2023-09-13T23:27:55.297Z,5.23
2023-09-13T23:30:22.928Z,3.00
2023-09-13T23:32:50.378Z,3.97
2023-09-13T23:35:17.934Z,4.28
2023-09-13T23:37:45.382Z,4.23
2023-09-13T23:40:13.018Z,6.10
2023-09-13T23:42:41.402Z,2.70
2023-09-13T23:47:36.322Z,3.38
2023-09-13T23:50:05.187Z,2.67
2023-09-13T23:52:32.785Z,5.72
2023-09-13T23:55:00.551Z,2.80
2023-09-13T23:57:28.239Z,4.30
2023-09-13T23:59:55.779Z,3.07
